Upstream stations:
Downstream station:
SHEF ID: OKBO2 North Canadian River at Britton
STATION TYPE:
STAGE RIV-FLOW WTR-TEMP DIS-OXY CONDUCT BAT-LOAD
ft cfs F mg/l umho/cm volt
Ccp-Rev Ccp-Rev Ccp-Rev Ccp-Rev Ccp-Rev Ccp-Rev
(US/Central)
03/07 00:00 5.29 32 ---- ---- 958 12.26
03/07 01:00 5.29 32 ---- ---- 950 12.22
03/07 02:00 5.29 32 ---- ---- 944 12.19
03/07 03:00 5.30 33 ---- ---- 942 12.17
03/07 04:00 5.30 33 ---- ---- 939 12.14
03/07 05:00 5.30 33 ---- ---- 935 12.11
03/07 06:00 5.59 71 ---- ---- 927 12.07
03/07 07:00 5.88 120 ---- ---- 919 12.05
03/07 08:00 5.96 136 ---- ---- 970 12.50
03/07 09:00 5.97 138 ---- ---- 1141 13.75
03/07 10:00 5.94 132 ---- ---- 1243 13.82
03/07 11:00 5.93 130 ---- ---- 1231 13.74
03/07 12:00 5.93 130 ---- ---- 1183 13.61
03/07 13:00 5.92 128 ---- ---- 1138 13.59
03/07 14:00 5.86 117 ---- ---- 1104 13.61
03/07 15:00 5.85 115 ---- ---- 1079 13.55
03/07 16:00 5.84 113 ---- ---- 1066 13.47
03/07 17:00 5.79 104 ---- ---- 1042 13.52
03/07 18:00 5.73 93 ---- ---- 998 13.52
03/07 19:00 5.66 82 ---- ---- 1012 13.24
03/07 20:00 5.61 74 ---- ---- 986 12.95
03/07 21:00 5.56 67 ---- ---- 1020 12.74
03/07 22:00 5.51 60 ---- ---- 1000 12.57
03/07 23:00 5.47 55 ---- ---- 992 12.40